sensor_id;sensor_type;location;lat;lon;timestamp;P1;durP1;ratioP1;P2;durP2;ratioP2
8036;SDS011;4061;51.360;7.340;2022-08-19T00:01:19;9.45;;;5.75;;
8036;SDS011;4061;51.360;7.340;2022-08-19T00:03:46;8.68;;;6.30;;
8036;SDS011;4061;51.360;7.340;2022-08-19T00:06:13;10.82;;;7.07;;
8036;SDS011;4061;51.360;7.340;2022-08-19T00:08:41;7.80;;;5.70;;
8036;SDS011;4061;51.360;7.340;2022-08-19T00:11:08;9.68;;;5.82;;
8036;SDS011;4061;51.360;7.340;2022-08-19T00:13:37;8.77;;;5.68;;
8036;SDS011;4061;51.360;7.340;2022-08-19T00:16:04;10.52;;;6.82;;
8036;SDS011;4061;51.360;7.340;2022-08-19T00:18:31;6.10;;;5.43;;
8036;SDS011;4061;51.360;7.340;2022-08-19T00:20:59;6.85;;;5.95;;
8036;SDS011;4061;51.360;7.340;2022-08-19T00:23:26;7.85;;;5.13;;
8036;SDS011;4061;51.360;7.340;2022-08-19T00:25:53;8.68;;;6.00;;
8036;SDS011;4061;51.360;7.340;2022-08-19T00:28:21;8.80;;;6.55;;
8036;SDS011;4061;51.360;7.340;2022-08-19T00:30:49;11.85;;;6.97;;
8036;SDS011;4061;51.360;7.340;2022-08-19T00:33:18;11.50;;;7.55;;
8036;SDS011;4061;51.360;7.340;2022-08-19T00:35:45;13.85;;;8.07;;
8036;SDS011;4061;51.360;7.340;2022-08-19T00:38:12;11.60;;;8.40;;
8036;SDS011;4061;51.360;7.340;2022-08-19T00:40:40;11.07;;;7.05;;
8036;SDS011;4061;51.360;7.340;2022-08-19T00:43:11;11.98;;;7.85;;
8036;SDS011;4061;51.360;7.340;2022-08-19T00:45:39;16.58;;;8.20;;
8036;SDS011;4061;51.360;7.340;2022-08-19T00:48:09;12.60;;;7.00;;
8036;SDS011;4061;51.360;7.340;2022-08-19T00:50:37;9.43;;;6.70;;
8036;SDS011;4061;51.360;7.340;2022-08-19T00:53:08;13.00;;;7.78;;
8036;SDS011;4061;51.360;7.340;2022-08-19T00:55:36;10.30;;;7.75;;
8036;SDS011;4061;51.360;7.340;2022-08-19T00:58:05;9.93;;;7.22;;
8036;SDS011;4061;51.360;7.340;2022-08-19T01:00:36;13.65;;;8.48;;
8036;SDS011;4061;51.360;7.340;2022-08-19T01:03:04;10.57;;;7.82;;
8036;SDS011;4061;51.360;7.340;2022-08-19T01:05:33;10.77;;;7.80;;
8036;SDS011;4061;51.360;7.340;2022-08-19T01:08:03;12.85;;;7.30;;
8036;SDS011;4061;51.360;7.340;2022-08-19T01:10:35;13.95;;;8.75;;
8036;SDS011;4061;51.360;7.340;2022-08-19T01:13:04;15.57;;;9.55;;
8036;SDS011;4061;51.360;7.340;2022-08-19T01:15:32;16.80;;;8.63;;
8036;SDS011;4061;51.360;7.340;2022-08-19T01:18:08;16.95;;;10.23;;
8036;SDS011;4061;51.360;7.340;2022-08-19T01:20:38;16.02;;;9.43;;
8036;SDS011;4061;51.360;7.340;2022-08-19T01:23:07;16.95;;;10.05;;
8036;SDS011;4061;51.360;7.340;2022-08-19T01:25:36;17.98;;;10.57;;
8036;SDS011;4061;51.360;7.340;2022-08-19T01:28:07;22.95;;;10.82;;
8036;SDS011;4061;51.360;7.340;2022-08-19T01:30:34;17.25;;;9.52;;
8036;SDS011;4061;51.360;7.340;2022-08-19T01:33:02;16.77;;;9.82;;
8036;SDS011;4061;51.360;7.340;2022-08-19T01:35:30;16.67;;;9.70;;
8036;SDS011;4061;51.360;7.340;2022-08-19T01:37:59;14.38;;;9.10;;
8036;SDS011;4061;51.360;7.340;2022-08-19T01:40:30;13.77;;;8.38;;
8036;SDS011;4061;51.360;7.340;2022-08-19T01:42:58;14.70;;;9.45;;
8036;SDS011;4061;51.360;7.340;2022-08-19T01:45:26;17.45;;;9.80;;
8036;SDS011;4061;51.360;7.340;2022-08-19T01:47:54;14.02;;;9.65;;
8036;SDS011;4061;51.360;7.340;2022-08-19T01:50:24;16.90;;;9.80;;
8036;SDS011;4061;51.360;7.340;2022-08-19T01:52:52;16.50;;;8.68;;
8036;SDS011;4061;51.360;7.340;2022-08-19T01:55:21;18.58;;;10.05;;
8036;SDS011;4061;51.360;7.340;2022-08-19T01:57:51;18.13;;;10.25;;
8036;SDS011;4061;51.360;7.340;2022-08-19T02:00:20;19.98;;;9.65;;
8036;SDS011;4061;51.360;7.340;2022-08-19T02:02:48;17.95;;;9.45;;
8036;SDS011;4061;51.360;7.340;2022-08-19T02:05:16;13.55;;;8.95;;
8036;SDS011;4061;51.360;7.340;2022-08-19T02:07:43;16.30;;;9.93;;
8036;SDS011;4061;51.360;7.340;2022-08-19T02:10:12;16.95;;;9.00;;
8036;SDS011;4061;51.360;7.340;2022-08-19T02:12:40;19.92;;;9.77;;
8036;SDS011;4061;51.360;7.340;2022-08-19T02:15:09;19.33;;;9.52;;
8036;SDS011;4061;51.360;7.340;2022-08-19T02:17:36;16.35;;;9.40;;
8036;SDS011;4061;51.360;7.340;2022-08-19T02:20:04;15.05;;;9.23;;
8036;SDS011;4061;51.360;7.340;2022-08-19T02:22:32;18.50;;;10.23;;
8036;SDS011;4061;51.360;7.340;2022-08-19T02:25:00;15.05;;;9.30;;
8036;SDS011;4061;51.360;7.340;2022-08-19T02:27:29;18.77;;;9.82;;
8036;SDS011;4061;51.360;7.340;2022-08-19T02:29:56;16.98;;;10.38;;
8036;SDS011;4061;51.360;7.340;2022-08-19T02:32:24;17.17;;;10.52;;
8036;SDS011;4061;51.360;7.340;2022-08-19T02:34:52;16.38;;;11.35;;
8036;SDS011;4061;51.360;7.340;2022-08-19T02:37:19;20.95;;;11.05;;
8036;SDS011;4061;51.360;7.340;2022-08-19T02:40:04;13.88;;;10.05;;
8036;SDS011;4061;51.360;7.340;2022-08-19T02:42:32;15.82;;;9.90;;
8036;SDS011;4061;51.360;7.340;2022-08-19T02:44:59;18.20;;;9.40;;
8036;SDS011;4061;51.360;7.340;2022-08-19T02:47:27;19.65;;;11.02;;
8036;SDS011;4061;51.360;7.340;2022-08-19T02:49:54;17.27;;;9.88;;
8036;SDS011;4061;51.360;7.340;2022-08-19T02:52:21;14.88;;;10.23;;
8036;SDS011;4061;51.360;7.340;2022-08-19T02:54:49;21.38;;;11.15;;
8036;SDS011;4061;51.360;7.340;2022-08-19T02:57:17;24.90;;;10.75;;
8036;SDS011;4061;51.360;7.340;2022-08-19T02:59:44;14.45;;;9.30;;
8036;SDS011;4061;51.360;7.340;2022-08-19T03:02:11;16.02;;;9.45;;
8036;SDS011;4061;51.360;7.340;2022-08-19T03:04:39;20.80;;;10.98;;
8036;SDS011;4061;51.360;7.340;2022-08-19T03:07:07;21.65;;;11.18;;
8036;SDS011;4061;51.360;7.340;2022-08-19T03:09:36;21.42;;;11.30;;
8036;SDS011;4061;51.360;7.340;2022-08-19T03:12:03;21.27;;;11.48;;
8036;SDS011;4061;51.360;7.340;2022-08-19T03:14:31;26.25;;;14.18;;
8036;SDS011;4061;51.360;7.340;2022-08-19T03:16:58;20.45;;;11.93;;
8036;SDS011;4061;51.360;7.340;2022-08-19T03:19:25;20.20;;;12.68;;
8036;SDS011;4061;51.360;7.340;2022-08-19T03:21:54;21.13;;;11.70;;
8036;SDS011;4061;51.360;7.340;2022-08-19T03:24:21;20.85;;;11.32;;
8036;SDS011;4061;51.360;7.340;2022-08-19T03:26:49;25.00;;;11.15;;
8036;SDS011;4061;51.360;7.340;2022-08-19T03:29:20;22.13;;;12.18;;
8036;SDS011;4061;51.360;7.340;2022-08-19T03:31:47;20.65;;;11.98;;
8036;SDS011;4061;51.360;7.340;2022-08-19T03:34:16;19.27;;;12.32;;
8036;SDS011;4061;51.360;7.340;2022-08-19T03:36:45;22.05;;;12.15;;
8036;SDS011;4061;51.360;7.340;2022-08-19T03:39:14;20.80;;;12.57;;
8036;SDS011;4061;51.360;7.340;2022-08-19T03:41:42;22.25;;;11.73;;
8036;SDS011;4061;51.360;7.340;2022-08-19T03:44:09;20.90;;;11.70;;
8036;SDS011;4061;51.360;7.340;2022-08-19T03:46:36;24.63;;;11.20;;
8036;SDS011;4061;51.360;7.340;2022-08-19T03:49:04;20.83;;;11.88;;
8036;SDS011;4061;51.360;7.340;2022-08-19T03:51:33;26.67;;;12.10;;
8036;SDS011;4061;51.360;7.340;2022-08-19T03:54:01;22.67;;;13.10;;
8036;SDS011;4061;51.360;7.340;2022-08-19T03:56:33;21.70;;;11.77;;
8036;SDS011;4061;51.360;7.340;2022-08-19T03:59:00;21.42;;;12.13;;
8036;SDS011;4061;51.360;7.340;2022-08-19T04:01:28;25.52;;;13.98;;
8036;SDS011;4061;51.360;7.340;2022-08-19T04:03:56;28.17;;;14.57;;
8036;SDS011;4061;51.360;7.340;2022-08-19T04:06:25;29.42;;;14.20;;
8036;SDS011;4061;51.360;7.340;2022-08-19T04:08:53;29.92;;;14.77;;
8036;SDS011;4061;51.360;7.340;2022-08-19T04:11:21;26.30;;;14.70;;
8036;SDS011;4061;51.360;7.340;2022-08-19T04:13:52;24.25;;;14.10;;
8036;SDS011;4061;51.360;7.340;2022-08-19T04:16:20;27.30;;;13.05;;
8036;SDS011;4061;51.360;7.340;2022-08-19T04:18:49;24.67;;;13.70;;
8036;SDS011;4061;51.360;7.340;2022-08-19T04:21:17;23.08;;;13.32;;
8036;SDS011;4061;51.360;7.340;2022-08-19T04:23:45;22.83;;;12.75;;
8036;SDS011;4061;51.360;7.340;2022-08-19T04:26:12;24.27;;;12.02;;
8036;SDS011;4061;51.360;7.340;2022-08-19T04:28:40;25.20;;;13.77;;
8036;SDS011;4061;51.360;7.340;2022-08-19T04:31:14;23.85;;;13.38;;
8036;SDS011;4061;51.360;7.340;2022-08-19T04:33:41;29.17;;;13.82;;
8036;SDS011;4061;51.360;7.340;2022-08-19T04:36:15;26.48;;;13.48;;
8036;SDS011;4061;51.360;7.340;2022-08-19T04:38:45;20.92;;;12.23;;
8036;SDS011;4061;51.360;7.340;2022-08-19T04:41:12;19.95;;;12.13;;
8036;SDS011;4061;51.360;7.340;2022-08-19T04:43:57;20.65;;;12.57;;
8036;SDS011;4061;51.360;7.340;2022-08-19T04:46:26;25.73;;;13.80;;
8036;SDS011;4061;51.360;7.340;2022-08-19T04:48:57;28.95;;;12.82;;
8036;SDS011;4061;51.360;7.340;2022-08-19T04:51:24;23.15;;;12.32;;
8036;SDS011;4061;51.360;7.340;2022-08-19T04:53:51;26.15;;;12.77;;
8036;SDS011;4061;51.360;7.340;2022-08-19T04:56:19;25.60;;;12.80;;
8036;SDS011;4061;51.360;7.340;2022-08-19T04:58:47;21.52;;;12.25;;
8036;SDS011;4061;51.360;7.340;2022-08-19T05:01:17;21.73;;;10.52;;
8036;SDS011;4061;51.360;7.340;2022-08-19T05:03:46;18.02;;;10.82;;
8036;SDS011;4061;51.360;7.340;2022-08-19T05:06:14;24.35;;;12.30;;
8036;SDS011;4061;51.360;7.340;2022-08-19T05:08:42;23.02;;;11.68;;
8036;SDS011;4061;51.360;7.340;2022-08-19T05:11:10;16.48;;;10.55;;
8036;SDS011;4061;51.360;7.340;2022-08-19T05:13:38;16.25;;;9.52;;
8036;SDS011;4061;51.360;7.340;2022-08-19T05:16:05;22.77;;;10.82;;
8036;SDS011;4061;51.360;7.340;2022-08-19T05:18:32;17.45;;;11.23;;
8036;SDS011;4061;51.360;7.340;2022-08-19T05:21:19;22.30;;;11.02;;
8036;SDS011;4061;51.360;7.340;2022-08-19T05:24:05;20.95;;;11.27;;
8036;SDS011;4061;51.360;7.340;2022-08-19T05:26:34;20.15;;;10.80;;
8036;SDS011;4061;51.360;7.340;2022-08-19T05:29:01;18.67;;;9.70;;
8036;SDS011;4061;51.360;7.340;2022-08-19T05:31:29;21.23;;;11.48;;
8036;SDS011;4061;51.360;7.340;2022-08-19T05:33:56;17.63;;;10.88;;
8036;SDS011;4061;51.360;7.340;2022-08-19T05:36:25;17.98;;;9.95;;
8036;SDS011;4061;51.360;7.340;2022-08-19T05:38:52;18.52;;;9.77;;
8036;SDS011;4061;51.360;7.340;2022-08-19T05:41:20;15.68;;;9.32;;
8036;SDS011;4061;51.360;7.340;2022-08-19T05:43:48;16.70;;;9.35;;
8036;SDS011;4061;51.360;7.340;2022-08-19T05:46:16;21.67;;;8.95;;
8036;SDS011;4061;51.360;7.340;2022-08-19T05:48:44;15.50;;;10.30;;
8036;SDS011;4061;51.360;7.340;2022-08-19T05:51:12;18.27;;;11.00;;
8036;SDS011;4061;51.360;7.340;2022-08-19T05:53:42;26.88;;;11.50;;
8036;SDS011;4061;51.360;7.340;2022-08-19T05:56:11;22.40;;;11.57;;
8036;SDS011;4061;51.360;7.340;2022-08-19T05:58:39;16.88;;;9.98;;
8036;SDS011;4061;51.360;7.340;2022-08-19T06:01:09;21.88;;;10.57;;
8036;SDS011;4061;51.360;7.340;2022-08-19T06:03:37;15.82;;;9.43;;
8036;SDS011;4061;51.360;7.340;2022-08-19T06:06:04;17.85;;;9.00;;
8036;SDS011;4061;51.360;7.340;2022-08-19T06:08:32;15.55;;;9.07;;
8036;SDS011;4061;51.360;7.340;2022-08-19T06:11:12;21.40;;;10.07;;
8036;SDS011;4061;51.360;7.340;2022-08-19T06:13:41;16.00;;;9.05;;
8036;SDS011;4061;51.360;7.340;2022-08-19T06:16:08;17.55;;;9.73;;
8036;SDS011;4061;51.360;7.340;2022-08-19T06:18:35;16.10;;;10.05;;
8036;SDS011;4061;51.360;7.340;2022-08-19T06:21:03;20.55;;;10.13;;
8036;SDS011;4061;51.360;7.340;2022-08-19T06:23:30;16.88;;;10.25;;
8036;SDS011;4061;51.360;7.340;2022-08-19T06:25:57;20.92;;;9.32;;
8036;SDS011;4061;51.360;7.340;2022-08-19T06:28:26;19.50;;;9.88;;
8036;SDS011;4061;51.360;7.340;2022-08-19T06:30:53;23.70;;;9.95;;
8036;SDS011;4061;51.360;7.340;2022-08-19T06:33:20;18.45;;;9.85;;
8036;SDS011;4061;51.360;7.340;2022-08-19T06:35:47;18.27;;;10.07;;
8036;SDS011;4061;51.360;7.340;2022-08-19T06:38:14;19.65;;;9.73;;
8036;SDS011;4061;51.360;7.340;2022-08-19T06:40:41;17.00;;;9.48;;
8036;SDS011;4061;51.360;7.340;2022-08-19T06:43:09;13.27;;;9.32;;
8036;SDS011;4061;51.360;7.340;2022-08-19T06:45:37;10.10;;;8.07;;
8036;SDS011;4061;51.360;7.340;2022-08-19T06:48:04;21.73;;;9.02;;
8036;SDS011;4061;51.360;7.340;2022-08-19T06:50:32;15.85;;;9.32;;
8036;SDS011;4061;51.360;7.340;2022-08-19T06:52:59;19.65;;;9.13;;
8036;SDS011;4061;51.360;7.340;2022-08-19T06:55:27;19.15;;;8.45;;
8036;SDS011;4061;51.360;7.340;2022-08-19T06:57:55;16.27;;;10.00;;
8036;SDS011;4061;51.360;7.340;2022-08-19T07:00:22;14.38;;;8.77;;
8036;SDS011;4061;51.360;7.340;2022-08-19T07:02:51;18.10;;;8.75;;
8036;SDS011;4061;51.360;7.340;2022-08-19T07:05:18;25.40;;;10.32;;
8036;SDS011;4061;51.360;7.340;2022-08-19T07:07:46;13.85;;;8.60;;
8036;SDS011;4061;51.360;7.340;2022-08-19T07:10:13;13.82;;;9.45;;
8036;SDS011;4061;51.360;7.340;2022-08-19T07:12:40;16.35;;;8.63;;
8036;SDS011;4061;51.360;7.340;2022-08-19T07:15:08;23.80;;;9.48;;
8036;SDS011;4061;51.360;7.340;2022-08-19T07:17:35;14.63;;;8.85;;
8036;SDS011;4061;51.360;7.340;2022-08-19T07:20:06;18.30;;;10.07;;
8036;SDS011;4061;51.360;7.340;2022-08-19T07:22:33;19.77;;;9.50;;
8036;SDS011;4061;51.360;7.340;2022-08-19T07:25:00;20.80;;;10.25;;
8036;SDS011;4061;51.360;7.340;2022-08-19T07:27:29;17.52;;;8.73;;
8036;SDS011;4061;51.360;7.340;2022-08-19T07:29:56;18.55;;;8.90;;
8036;SDS011;4061;51.360;7.340;2022-08-19T07:32:23;15.60;;;8.68;;
8036;SDS011;4061;51.360;7.340;2022-08-19T07:34:51;18.17;;;7.97;;
8036;SDS011;4061;51.360;7.340;2022-08-19T07:37:20;14.43;;;8.75;;
8036;SDS011;4061;51.360;7.340;2022-08-19T07:39:47;13.43;;;8.43;;
8036;SDS011;4061;51.360;7.340;2022-08-19T07:42:14;15.68;;;8.38;;
8036;SDS011;4061;51.360;7.340;2022-08-19T07:44:42;12.98;;;8.48;;
8036;SDS011;4061;51.360;7.340;2022-08-19T07:47:09;16.67;;;8.43;;
8036;SDS011;4061;51.360;7.340;2022-08-19T07:49:37;17.48;;;8.40;;
8036;SDS011;4061;51.360;7.340;2022-08-19T07:52:06;9.50;;;7.07;;
8036;SDS011;4061;51.360;7.340;2022-08-19T07:54:37;11.07;;;6.78;;
8036;SDS011;4061;51.360;7.340;2022-08-19T07:57:05;12.05;;;7.22;;
8036;SDS011;4061;51.360;7.340;2022-08-19T07:59:32;13.32;;;6.65;;
8036;SDS011;4061;51.360;7.340;2022-08-19T08:01:59;15.63;;;7.97;;
8036;SDS011;4061;51.360;7.340;2022-08-19T08:04:27;10.23;;;7.13;;
8036;SDS011;4061;51.360;7.340;2022-08-19T08:07:14;11.73;;;7.07;;
8036;SDS011;4061;51.360;7.340;2022-08-19T08:10:00;12.00;;;6.72;;
8036;SDS011;4061;51.360;7.340;2022-08-19T08:12:28;14.43;;;6.80;;
8036;SDS011;4061;51.360;7.340;2022-08-19T08:14:56;11.57;;;6.53;;
8036;SDS011;4061;51.360;7.340;2022-08-19T08:17:24;11.88;;;6.90;;
8036;SDS011;4061;51.360;7.340;2022-08-19T08:19:52;9.00;;;5.90;;
8036;SDS011;4061;51.360;7.340;2022-08-19T08:22:20;11.85;;;6.75;;
8036;SDS011;4061;51.360;7.340;2022-08-19T08:25:08;10.45;;;7.22;;
8036;SDS011;4061;51.360;7.340;2022-08-19T08:27:37;11.45;;;5.45;;
8036;SDS011;4061;51.360;7.340;2022-08-19T08:30:06;6.78;;;5.40;;
8036;SDS011;4061;51.360;7.340;2022-08-19T08:32:34;9.05;;;5.97;;
8036;SDS011;4061;51.360;7.340;2022-08-19T08:35:04;6.35;;;5.72;;
8036;SDS011;4061;51.360;7.340;2022-08-19T08:37:32;10.45;;;5.35;;
8036;SDS011;4061;51.360;7.340;2022-08-19T08:40:01;11.85;;;6.57;;
8036;SDS011;4061;51.360;7.340;2022-08-19T08:42:30;6.90;;;5.55;;
8036;SDS011;4061;51.360;7.340;2022-08-19T08:45:02;9.63;;;6.10;;
8036;SDS011;4061;51.360;7.340;2022-08-19T08:47:32;11.68;;;7.85;;
8036;SDS011;4061;51.360;7.340;2022-08-19T08:50:03;13.48;;;7.70;;
8036;SDS011;4061;51.360;7.340;2022-08-19T08:52:32;16.77;;;8.73;;
8036;SDS011;4061;51.360;7.340;2022-08-19T08:55:03;16.45;;;8.63;;
8036;SDS011;4061;51.360;7.340;2022-08-19T08:57:36;11.98;;;9.45;;
8036;SDS011;4061;51.360;7.340;2022-08-19T09:00:17;12.23;;;8.68;;
8036;SDS011;4061;51.360;7.340;2022-08-19T09:02:46;12.68;;;9.20;;
8036;SDS011;4061;51.360;7.340;2022-08-19T09:05:13;11.93;;;9.43;;
8036;SDS011;4061;51.360;7.340;2022-08-19T09:07:42;13.93;;;9.88;;
8036;SDS011;4061;51.360;7.340;2022-08-19T09:10:15;14.50;;;8.98;;
8036;SDS011;4061;51.360;7.340;2022-08-19T09:12:46;12.27;;;8.10;;
8036;SDS011;4061;51.360;7.340;2022-08-19T09:15:15;12.65;;;9.00;;
8036;SDS011;4061;51.360;7.340;2022-08-19T09:17:45;13.88;;;8.13;;
8036;SDS011;4061;51.360;7.340;2022-08-19T09:20:14;13.32;;;9.05;;
8036;SDS011;4061;51.360;7.340;2022-08-19T09:22:44;14.65;;;10.40;;
8036;SDS011;4061;51.360;7.340;2022-08-19T09:25:14;16.13;;;10.13;;
8036;SDS011;4061;51.360;7.340;2022-08-19T09:27:41;10.93;;;8.27;;
8036;SDS011;4061;51.360;7.340;2022-08-19T09:30:12;15.90;;;10.00;;
8036;SDS011;4061;51.360;7.340;2022-08-19T09:32:42;14.30;;;9.15;;
8036;SDS011;4061;51.360;7.340;2022-08-19T09:35:09;13.60;;;8.57;;
8036;SDS011;4061;51.360;7.340;2022-08-19T09:37:37;16.17;;;9.25;;
8036;SDS011;4061;51.360;7.340;2022-08-19T09:40:05;10.52;;;7.72;;
8036;SDS011;4061;51.360;7.340;2022-08-19T09:42:32;9.13;;;7.10;;
8036;SDS011;4061;51.360;7.340;2022-08-19T09:44:59;10.07;;;7.88;;
8036;SDS011;4061;51.360;7.340;2022-08-19T09:47:28;11.32;;;7.85;;
8036;SDS011;4061;51.360;7.340;2022-08-19T09:49:55;15.95;;;9.05;;
8036;SDS011;4061;51.360;7.340;2022-08-19T09:52:23;14.15;;;10.00;;
8036;SDS011;4061;51.360;7.340;2022-08-19T09:54:51;18.20;;;10.95;;
8036;SDS011;4061;51.360;7.340;2022-08-19T09:57:19;20.05;;;10.70;;
8036;SDS011;4061;51.360;7.340;2022-08-19T09:59:46;13.82;;;9.38;;
8036;SDS011;4061;51.360;7.340;2022-08-19T10:02:13;23.38;;;12.25;;
8036;SDS011;4061;51.360;7.340;2022-08-19T10:04:41;16.65;;;10.40;;
8036;SDS011;4061;51.360;7.340;2022-08-19T10:07:26;14.98;;;9.45;;
8036;SDS011;4061;51.360;7.340;2022-08-19T10:09:53;15.45;;;8.95;;
8036;SDS011;4061;51.360;7.340;2022-08-19T10:12:20;14.23;;;9.50;;
8036;SDS011;4061;51.360;7.340;2022-08-19T10:14:47;12.38;;;8.52;;
8036;SDS011;4061;51.360;7.340;2022-08-19T10:17:16;12.27;;;9.13;;
8036;SDS011;4061;51.360;7.340;2022-08-19T10:19:45;13.82;;;7.20;;
8036;SDS011;4061;51.360;7.340;2022-08-19T10:22:12;11.88;;;8.90;;
8036;SDS011;4061;51.360;7.340;2022-08-19T10:24:40;9.77;;;7.18;;
8036;SDS011;4061;51.360;7.340;2022-08-19T10:27:07;11.70;;;6.78;;
8036;SDS011;4061;51.360;7.340;2022-08-19T10:29:34;10.85;;;7.97;;
8036;SDS011;4061;51.360;7.340;2022-08-19T10:32:02;7.45;;;6.57;;
8036;SDS011;4061;51.360;7.340;2022-08-19T10:34:31;11.23;;;8.77;;
8036;SDS011;4061;51.360;7.340;2022-08-19T10:36:59;12.80;;;7.35;;
8036;SDS011;4061;51.360;7.340;2022-08-19T10:39:27;10.57;;;7.38;;
8036;SDS011;4061;51.360;7.340;2022-08-19T10:41:55;11.63;;;8.40;;
8036;SDS011;4061;51.360;7.340;2022-08-19T10:44:22;12.43;;;7.00;;
8036;SDS011;4061;51.360;7.340;2022-08-19T10:46:50;6.95;;;6.10;;
8036;SDS011;4061;51.360;7.340;2022-08-19T10:49:17;8.30;;;6.00;;
8036;SDS011;4061;51.360;7.340;2022-08-19T10:51:44;8.50;;;6.45;;
8036;SDS011;4061;51.360;7.340;2022-08-19T10:54:31;6.00;;;4.78;;
8036;SDS011;4061;51.360;7.340;2022-08-19T10:57:16;5.45;;;4.15;;
8036;SDS011;4061;51.360;7.340;2022-08-19T10:59:44;8.98;;;5.70;;
8036;SDS011;4061;51.360;7.340;2022-08-19T11:02:12;5.78;;;5.18;;
8036;SDS011;4061;51.360;7.340;2022-08-19T11:04:39;7.60;;;5.25;;
8036;SDS011;4061;51.360;7.340;2022-08-19T11:07:06;11.20;;;7.68;;
8036;SDS011;4061;51.360;7.340;2022-08-19T11:09:38;9.70;;;6.07;;
8036;SDS011;4061;51.360;7.340;2022-08-19T11:12:06;10.93;;;4.90;;
8036;SDS011;4061;51.360;7.340;2022-08-19T11:14:34;7.18;;;4.60;;
8036;SDS011;4061;51.360;7.340;2022-08-19T11:17:01;9.15;;;5.22;;
8036;SDS011;4061;51.360;7.340;2022-08-19T11:19:28;7.72;;;5.40;;
8036;SDS011;4061;51.360;7.340;2022-08-19T11:21:56;6.50;;;4.75;;
8036;SDS011;4061;51.360;7.340;2022-08-19T11:24:26;7.75;;;5.43;;
8036;SDS011;4061;51.360;7.340;2022-08-19T11:26:58;9.60;;;5.32;;
8036;SDS011;4061;51.360;7.340;2022-08-19T11:29:29;7.20;;;5.28;;
8036;SDS011;4061;51.360;7.340;2022-08-19T11:31:57;4.35;;;3.95;;
8036;SDS011;4061;51.360;7.340;2022-08-19T11:34:26;6.00;;;4.47;;
8036;SDS011;4061;51.360;7.340;2022-08-19T11:36:55;6.22;;;5.13;;
8036;SDS011;4061;51.360;7.340;2022-08-19T11:39:24;7.88;;;6.65;;
8036;SDS011;4061;51.360;7.340;2022-08-19T11:41:54;8.20;;;6.90;;
8036;SDS011;4061;51.360;7.340;2022-08-19T11:44:21;7.07;;;5.05;;
8036;SDS011;4061;51.360;7.340;2022-08-19T11:46:48;8.43;;;5.70;;
8036;SDS011;4061;51.360;7.340;2022-08-19T11:49:18;6.00;;;4.50;;
8036;SDS011;4061;51.360;7.340;2022-08-19T11:51:46;5.78;;;4.22;;
8036;SDS011;4061;51.360;7.340;2022-08-19T11:54:14;7.68;;;3.97;;
8036;SDS011;4061;51.360;7.340;2022-08-19T11:56:42;10.65;;;7.15;;
8036;SDS011;4061;51.360;7.340;2022-08-19T11:59:11;9.82;;;7.32;;
8036;SDS011;4061;51.360;7.340;2022-08-19T12:01:38;7.30;;;6.00;;
8036;SDS011;4061;51.360;7.340;2022-08-19T12:04:07;10.13;;;6.00;;
8036;SDS011;4061;51.360;7.340;2022-08-19T12:06:36;5.45;;;4.93;;
8036;SDS011;4061;51.360;7.340;2022-08-19T12:09:05;6.93;;;4.38;;
8036;SDS011;4061;51.360;7.340;2022-08-19T12:11:33;8.20;;;5.78;;
8036;SDS011;4061;51.360;7.340;2022-08-19T12:14:02;8.95;;;6.30;;
8036;SDS011;4061;51.360;7.340;2022-08-19T12:16:31;9.13;;;7.28;;
8036;SDS011;4061;51.360;7.340;2022-08-19T12:18:58;10.48;;;7.32;;
8036;SDS011;4061;51.360;7.340;2022-08-19T12:21:28;7.72;;;6.22;;
8036;SDS011;4061;51.360;7.340;2022-08-19T12:23:56;16.08;;;6.82;;
8036;SDS011;4061;51.360;7.340;2022-08-19T12:26:25;10.25;;;6.80;;
8036;SDS011;4061;51.360;7.340;2022-08-19T12:28:53;11.80;;;7.30;;
8036;SDS011;4061;51.360;7.340;2022-08-19T12:31:20;10.30;;;7.43;;
8036;SDS011;4061;51.360;7.340;2022-08-19T12:33:49;11.02;;;7.05;;
8036;SDS011;4061;51.360;7.340;2022-08-19T12:36:17;8.98;;;6.38;;
8036;SDS011;4061;51.360;7.340;2022-08-19T12:38:44;15.93;;;8.93;;
8036;SDS011;4061;51.360;7.340;2022-08-19T12:41:13;11.88;;;8.63;;
8036;SDS011;4061;51.360;7.340;2022-08-19T12:43:43;7.43;;;6.10;;
8036;SDS011;4061;51.360;7.340;2022-08-19T12:46:10;9.05;;;6.90;;
8036;SDS011;4061;51.360;7.340;2022-08-19T12:48:39;8.35;;;7.20;;
8036;SDS011;4061;51.360;7.340;2022-08-19T12:51:10;9.48;;;7.13;;
8036;SDS011;4061;51.360;7.340;2022-08-19T12:53:37;10.43;;;6.78;;
8036;SDS011;4061;51.360;7.340;2022-08-19T12:56:05;8.45;;;5.20;;
8036;SDS011;4061;51.360;7.340;2022-08-19T12:58:32;7.50;;;5.70;;
8036;SDS011;4061;51.360;7.340;2022-08-19T13:01:05;7.65;;;4.55;;
8036;SDS011;4061;51.360;7.340;2022-08-19T13:03:33;5.38;;;4.15;;
8036;SDS011;4061;51.360;7.340;2022-08-19T13:06:00;5.25;;;4.70;;
8036;SDS011;4061;51.360;7.340;2022-08-19T13:08:28;5.40;;;4.25;;
8036;SDS011;4061;51.360;7.340;2022-08-19T13:10:55;5.30;;;4.43;;
8036;SDS011;4061;51.360;7.340;2022-08-19T13:13:23;5.00;;;4.07;;
8036;SDS011;4061;51.360;7.340;2022-08-19T13:15:51;5.22;;;3.20;;
8036;SDS011;4061;51.360;7.340;2022-08-19T13:18:18;6.35;;;3.83;;
8036;SDS011;4061;51.360;7.340;2022-08-19T13:20:45;5.60;;;3.60;;
8036;SDS011;4061;51.360;7.340;2022-08-19T13:23:12;6.70;;;3.78;;
8036;SDS011;4061;51.360;7.340;2022-08-19T13:25:41;3.58;;;3.33;;
8036;SDS011;4061;51.360;7.340;2022-08-19T13:28:08;3.80;;;3.50;;
8036;SDS011;4061;51.360;7.340;2022-08-19T13:30:35;6.28;;;4.20;;
8036;SDS011;4061;51.360;7.340;2022-08-19T13:33:20;6.22;;;3.40;;
8036;SDS011;4061;51.360;7.340;2022-08-19T13:35:50;4.20;;;2.80;;
8036;SDS011;4061;51.360;7.340;2022-08-19T13:38:22;3.35;;;3.08;;
8036;SDS011;4061;51.360;7.340;2022-08-19T13:40:51;2.67;;;2.47;;
8036;SDS011;4061;51.360;7.340;2022-08-19T13:43:19;3.35;;;3.00;;
8036;SDS011;4061;51.360;7.340;2022-08-19T13:45:48;3.08;;;2.67;;
8036;SDS011;4061;51.360;7.340;2022-08-19T13:48:15;7.80;;;4.45;;
8036;SDS011;4061;51.360;7.340;2022-08-19T13:50:44;3.90;;;3.53;;
8036;SDS011;4061;51.360;7.340;2022-08-19T13:53:12;5.80;;;4.40;;
8036;SDS011;4061;51.360;7.340;2022-08-19T13:55:39;7.38;;;3.67;;
8036;SDS011;4061;51.360;7.340;2022-08-19T13:58:09;3.72;;;3.45;;
8036;SDS011;4061;51.360;7.340;2022-08-19T14:00:38;8.00;;;3.70;;
8036;SDS011;4061;51.360;7.340;2022-08-19T14:03:05;4.40;;;3.72;;
8036;SDS011;4061;51.360;7.340;2022-08-19T14:05:32;3.95;;;3.55;;
8036;SDS011;4061;51.360;7.340;2022-08-19T14:08:00;8.18;;;3.80;;
8036;SDS011;4061;51.360;7.340;2022-08-19T14:10:27;4.18;;;3.70;;
8036;SDS011;4061;51.360;7.340;2022-08-19T14:12:56;4.47;;;3.75;;
8036;SDS011;4061;51.360;7.340;2022-08-19T14:15:26;3.80;;;3.50;;
8036;SDS011;4061;51.360;7.340;2022-08-19T14:17:53;6.05;;;4.10;;
8036;SDS011;4061;51.360;7.340;2022-08-19T14:20:21;3.97;;;3.67;;
8036;SDS011;4061;51.360;7.340;2022-08-19T14:22:48;8.23;;;3.45;;
8036;SDS011;4061;51.360;7.340;2022-08-19T14:25:16;5.15;;;3.00;;
8036;SDS011;4061;51.360;7.340;2022-08-19T14:27:44;8.00;;;3.28;;
8036;SDS011;4061;51.360;7.340;2022-08-19T14:30:11;5.50;;;3.08;;
8036;SDS011;4061;51.360;7.340;2022-08-19T14:32:42;5.28;;;3.65;;
8036;SDS011;4061;51.360;7.340;2022-08-19T14:35:10;7.38;;;3.47;;
8036;SDS011;4061;51.360;7.340;2022-08-19T14:37:39;4.22;;;3.72;;
8036;SDS011;4061;51.360;7.340;2022-08-19T14:40:07;3.70;;;3.35;;
8036;SDS011;4061;51.360;7.340;2022-08-19T14:42:34;4.40;;;3.30;;
8036;SDS011;4061;51.360;7.340;2022-08-19T14:45:02;5.50;;;3.38;;
8036;SDS011;4061;51.360;7.340;2022-08-19T14:47:31;3.22;;;2.80;;
8036;SDS011;4061;51.360;7.340;2022-08-19T14:49:59;3.97;;;3.28;;
8036;SDS011;4061;51.360;7.340;2022-08-19T14:52:27;4.63;;;2.85;;
8036;SDS011;4061;51.360;7.340;2022-08-19T14:54:54;3.10;;;2.90;;
8036;SDS011;4061;51.360;7.340;2022-08-19T14:57:21;5.05;;;3.35;;
8036;SDS011;4061;51.360;7.340;2022-08-19T14:59:48;4.32;;;3.25;;
8036;SDS011;4061;51.360;7.340;2022-08-19T15:02:16;2.83;;;2.63;;
8036;SDS011;4061;51.360;7.340;2022-08-19T15:04:43;3.42;;;2.65;;
8036;SDS011;4061;51.360;7.340;2022-08-19T15:07:11;4.63;;;2.53;;
8036;SDS011;4061;51.360;7.340;2022-08-19T15:09:39;4.35;;;2.67;;
8036;SDS011;4061;51.360;7.340;2022-08-19T15:12:07;3.72;;;2.80;;